Sign-in with your pilot id or email, or register

ICAO: EDDF Name / Country: Frankfurt Airport / Germany
Latitude: 50.0406 Longitude: 8.55603
Total Arrivals:
Deprecated: Non-static method AirportData::getarrflights() should not be called statically, assuming $this from incompatible context in /var/www/customers/vh-7192/web/home/phpvms/core/templates/airport_info.tpl on line 18
4
Total Departures:
Deprecated: Non-static method AirportData::getdeptflights() should not be called statically, assuming $this from incompatible context in /var/www/customers/vh-7192/web/home/phpvms/core/templates/airport_info.tpl on line 21
2
Latest Arrival: MTA522 (LHBP-EDDF) Laszlo Bartucz Latest Departure: (-)
Metar: EDDF 211250Z 08008KT 360V150 9999 FEW042 SCT048 17/05 Q1029 NOSIG
More info

Charts for EDDF


NOTAM


Warning: file_get_contents(http://api.vateud.net/notams/EDDF.json): failed to open stream: HTTP request failed! HTTP/1.1 404 Not Found in /var/www/customers/vh-7192/web/home/phpvms/core/common/NOTAMSData.class.php on line 18

Warning: Invalid argument supplied for foreach() in /var/www/customers/vh-7192/web/home/phpvms/core/common/NOTAMSData.class.php on line 22

Frankfurt Airport